Time,TemperatureF,DewpointF,PressureIn,WindDirection,WindDirectionDegrees,WindSpeedMPH,WindSpeedGustMPH,Humidity,HourlyPrecipIn,Conditions,Clouds,dailyrainin,SoftwareType,DateUTC
2013-02-02 00:12:00,23.2,8.0,30.10,SW,223,3.0,-999.0,53,-99.99,,,0.00,weatherlink.com 1.10,2013-02-02 05:12:00,
2013-02-02 00:27:00,22.8,8.0,30.10,SSW,200,6.0,-999.0,54,-99.99,,,0.00,weatherlink.com 1.10,2013-02-02 05:27:00,
2013-02-02 00:41:00,22.7,9.0,30.10,SSW,210,3.0,-999.0,55,-99.99,,,0.00,weatherlink.com 1.10,2013-02-02 05:41:00,
2013-02-02 00:57:00,22.6,9.0,30.10,SW,236,3.0,-999.0,56,-99.99,,,0.00,weatherlink.com 1.10,2013-02-02 05:57:00,
2013-02-02 01:11:00,22.4,9.0,30.11,SW,225,0.0,-999.0,57,-99.99,,,0.00,weatherlink.com 1.10,2013-02-02 06:11:00,
2013-02-02 01:26:00,22.3,9.0,30.12,SW,227,4.0,-999.0,57,-99.99,,,0.00,weatherlink.com 1.10,2013-02-02 06:26:00,
2013-02-02 01:41:00,22.3,9.0,30.12,SW,235,4.0,-999.0,58,-99.99,,,0.00,weatherlink.com 1.10,2013-02-02 06:41:00,
2013-02-02 01:57:00,22.4,10.0,30.13,WSW,239,5.0,-999.0,59,-99.99,,,0.00,weatherlink.com 1.10,2013-02-02 06:57:00,
2013-02-02 02:11:00,22.3,10.0,30.13,SW,225,2.0,-999.0,59,-99.99,,,0.00,weatherlink.com 1.10,2013-02-02 07:11:00,
2013-02-02 02:26:00,22.1,10.0,30.14,SW,214,2.0,-999.0,60,-99.99,,,0.00,weatherlink.com 1.10,2013-02-02 07:26:00,
2013-02-02 02:42:00,22.1,10.0,30.14,SSW,210,4.0,-999.0,60,-99.99,,,0.00,weatherlink.com 1.10,2013-02-02 07:42:00,
2013-02-02 02:57:00,22.1,10.0,30.14,WSW,254,2.0,-999.0,61,-99.99,,,0.00,weatherlink.com 1.10,2013-02-02 07:57:00,
2013-02-02 03:11:00,21.8,10.0,30.14,SSW,210,1.0,-999.0,60,-99.99,,,0.00,weatherlink.com 1.10,2013-02-02 08:11:00,
2013-02-02 03:26:00,21.8,11.0,30.14,SW,216,2.0,-999.0,62,-99.99,,,0.00,weatherlink.com 1.10,2013-02-02 08:26:00,
2013-02-02 03:41:00,21.7,10.0,30.15,SW,214,5.0,-999.0,62,-99.99,,,0.00,weatherlink.com 1.10,2013-02-02 08:41:00,
2013-02-02 03:57:00,21.5,10.0,30.15,SSW,210,2.0,-999.0,62,-99.99,,,0.00,weatherlink.com 1.10,2013-02-02 08:57:00,
2013-02-02 04:11:00,21.5,10.0,30.16,SW,215,2.0,-999.0,62,-99.99,,,0.00,weatherlink.com 1.10,2013-02-02 09:11:00,
2013-02-02 04:26:00,21.4,11.0,30.17,SW,214,0.0,-999.0,63,-99.99,,,0.00,weatherlink.com 1.10,2013-02-02 09:26:00,
2013-02-02 04:41:00,21.4,10.0,30.17,SSW,210,1.0,-999.0,62,-99.99,,,0.00,weatherlink.com 1.10,2013-02-02 09:41:00,
2013-02-02 04:56:00,21.1,10.0,30.18,SSW,210,0.0,-999.0,62,-99.99,,,0.00,weatherlink.com 1.10,2013-02-02 09:56:00,
2013-02-02 05:11:00,20.9,10.0,30.18,SSW,205,2.0,-999.0,63,-99.99,,,0.00,weatherlink.com 1.10,2013-02-02 10:11:00,
2013-02-02 05:26:00,20.7,10.0,30.19,SW,214,1.0,-999.0,63,-99.99,,,0.00,weatherlink.com 1.10,2013-02-02 10:26:00,
2013-02-02 05:42:00,20.4,10.0,30.19,SSW,210,0.0,-999.0,63,-99.99,,,0.00,weatherlink.com 1.10,2013-02-02 10:42:00,
2013-02-02 05:57:00,20.3,9.0,30.19,NNW,336,0.0,-999.0,63,-99.99,,,0.00,weatherlink.com 1.10,2013-02-02 10:57:00,
2013-02-02 06:12:00,20.3,9.0,30.20,WNW,297,0.0,-999.0,62,-99.99,,,0.00,weatherlink.com 1.10,2013-02-02 11:12:00,
2013-02-02 06:26:00,19.9,9.0,30.21,SSW,205,0.0,-999.0,63,-99.99,,,0.00,weatherlink.com 1.10,2013-02-02 11:26:00,
2013-02-02 06:41:00,19.7,9.0,30.22,SSW,205,0.0,-999.0,63,-99.99,,,0.00,weatherlink.com 1.10,2013-02-02 11:41:00,
2013-02-02 06:57:00,19.2,9.0,30.22,SSW,205,0.0,-999.0,65,-99.99,,,0.00,weatherlink.com 1.10,2013-02-02 11:57:00,
2013-02-02 07:11:00,19.2,9.0,30.23,SSW,210,0.0,-999.0,64,-99.99,,,0.00,weatherlink.com 1.10,2013-02-02 12:11:00,
2013-02-02 07:26:00,19.4,9.0,30.23,SW,218,0.0,-999.0,63,-99.99,,,0.00,weatherlink.com 1.10,2013-02-02 12:26:00,
2013-02-02 07:41:00,19.7,9.0,30.23,SW,218,0.0,-999.0,62,-99.99,,,0.00,weatherlink.com 1.10,2013-02-02 12:41:00,
2013-02-02 07:56:00,20.6,9.0,30.24,SW,214,2.0,-999.0,62,-99.99,,,0.00,weatherlink.com 1.10,2013-02-02 12:56:00,
2013-02-02 08:11:00,21.6,10.0,30.24,SSW,205,5.0,-999.0,62,-99.99,,,0.00,weatherlink.com 1.10,2013-02-02 13:11:00,
2013-02-02 08:26:00,22.5,10.0,30.25,SW,224,0.0,-999.0,59,-99.99,,,0.00,weatherlink.com 1.10,2013-02-02 13:26:00,
2013-02-02 08:41:00,22.7,8.0,30.24,WSW,243,2.0,-999.0,54,-99.99,,,0.00,weatherlink.com 1.10,2013-02-02 13:41:00,
2013-02-02 08:57:00,-999.0,-99.9,30.25,West,260,0.0,-999.0,-999,-99.99,,,0.00,weatherlink.com 1.10,2013-02-02 13:57:00,
2013-02-02 09:12:00,-999.0,-99.9,30.25,WSW,246,5.0,-999.0,-999,-99.99,,,0.00,weatherlink.com 1.10,2013-02-02 14:12:00,
2013-02-02 09:26:00,24.8,8.0,30.25,SW,231,4.0,-999.0,49,-99.99,,,0.00,weatherlink.com 1.10,2013-02-02 14:26:00,
2013-02-02 09:42:00,25.7,8.0,30.25,WNW,299,0.0,-999.0,48,-99.99,,,0.00,weatherlink.com 1.10,2013-02-02 14:42:00,
2013-02-02 09:56:00,26.8,9.0,30.25,NW,322,2.0,-999.0,47,-99.99,,,0.00,weatherlink.com 1.10,2013-02-02 14:56:00,
2013-02-02 10:11:00,26.5,9.0,30.25,West,260,5.0,-999.0,47,-99.99,,,0.00,weatherlink.com 1.10,2013-02-02 15:11:00,
2013-02-02 10:26:00,27.4,9.0,30.24,West,264,3.0,-999.0,47,-99.99,,,0.00,weatherlink.com 1.10,2013-02-02 15:26:00,
2013-02-02 10:42:00,27.5,10.0,30.24,SW,227,5.0,-999.0,48,-99.99,,,0.00,weatherlink.com 1.10,2013-02-02 15:42:00,
2013-02-02 10:56:00,27.3,10.0,30.24,SW,217,0.0,-999.0,48,-99.99,,,0.00,weatherlink.com 1.10,2013-02-02 15:56:00,
2013-02-02 11:11:00,27.8,11.0,30.23,SW,214,11.0,-999.0,50,-99.99,,,0.00,weatherlink.com 1.10,2013-02-02 16:11:00,
2013-02-02 11:26:00,27.7,11.0,30.23,SSW,196,5.0,-999.0,50,-99.99,,,0.00,weatherlink.com 1.10,2013-02-02 16:26:00,
2013-02-02 11:41:00,27.8,11.0,30.22,SSW,200,4.0,-999.0,50,-99.99,,,0.00,weatherlink.com 1.10,2013-02-02 16:41:00,
2013-02-02 11:57:00,28.3,13.0,30.21,SSW,200,14.0,-999.0,52,-99.99,,,0.00,weatherlink.com 1.10,2013-02-02 16:57:00,
2013-02-02 12:11:00,27.8,13.0,30.20,SSW,205,7.0,-999.0,54,-99.99,,,0.00,weatherlink.com 1.10,2013-02-02 17:11:00,
2013-02-02 12:26:00,27.2,13.0,30.19,SSW,205,6.0,-999.0,56,-99.99,,,0.00,weatherlink.com 1.10,2013-02-02 17:26:00,
2013-02-02 12:42:00,27.6,14.0,30.18,SSW,205,9.0,-999.0,58,-99.99,,,0.00,weatherlink.com 1.10,2013-02-02 17:42:00,
2013-02-02 12:56:00,28.2,14.0,30.17,SSW,200,7.0,-999.0,55,-99.99,,,0.00,weatherlink.com 1.10,2013-02-02 17:56:00,
2013-02-02 13:11:00,28.3,15.0,30.17,SW,216,12.0,-999.0,58,-99.99,,,0.00,weatherlink.com 1.10,2013-02-02 18:11:00,
2013-02-02 13:26:00,28.2,17.0,30.16,SSW,200,6.0,-999.0,64,-99.99,,,0.00,weatherlink.com 1.10,2013-02-02 18:26:00,
2013-02-02 13:41:00,27.6,18.0,30.15,SW,218,12.0,-999.0,66,-99.99,,,0.00,weatherlink.com 1.10,2013-02-02 18:41:00,
2013-02-02 13:57:00,28.3,19.0,30.14,SSW,200,11.0,-999.0,67,-99.99,,,0.00,weatherlink.com 1.10,2013-02-02 18:57:00,
2013-02-02 14:11:00,28.9,19.0,30.14,SSW,205,13.0,-999.0,66,-99.99,,,0.00,weatherlink.com 1.10,2013-02-02 19:11:00,
2013-02-02 14:26:00,29.3,19.0,30.13,SW,215,15.0,-999.0,65,-99.99,,,0.00,weatherlink.com 1.10,2013-02-02 19:26:00,
2013-02-02 14:41:00,29.0,19.0,30.13,SW,214,11.0,-999.0,65,-99.99,,,0.00,weatherlink.com 1.10,2013-02-02 19:41:00,
2013-02-02 14:56:00,29.7,18.0,30.12,SW,227,11.0,-999.0,63,-99.99,,,0.00,weatherlink.com 1.10,2013-02-02 19:56:00,
2013-02-02 15:11:00,29.3,18.0,30.12,SSW,205,12.0,-999.0,62,-99.99,,,0.00,weatherlink.com 1.10,2013-02-02 20:11:00,
2013-02-02 15:26:00,28.8,18.0,30.11,South,191,16.0,-999.0,64,-99.99,,,0.00,weatherlink.com 1.10,2013-02-02 20:26:00,
2013-02-02 15:42:00,28.8,18.0,30.11,SSW,205,14.0,-999.0,65,-99.99,,,0.00,weatherlink.com 1.10,2013-02-02 20:42:00,
2013-02-02 15:56:00,28.7,18.0,30.11,SW,216,15.0,-999.0,64,-99.99,,,0.00,weatherlink.com 1.10,2013-02-02 20:56:00,
2013-02-02 16:11:00,29.1,18.0,30.10,SSW,210,11.0,-999.0,64,-99.99,,,0.00,weatherlink.com 1.10,2013-02-02 21:11:00,
2013-02-02 16:27:00,28.7,17.0,30.10,SW,218,5.0,-999.0,63,-99.99,,,0.00,weatherlink.com 1.10,2013-02-02 21:27:00,
2013-02-02 16:41:00,28.7,19.0,30.10,SW,221,12.0,-999.0,66,-99.99,,,0.00,weatherlink.com 1.10,2013-02-02 21:41:00,
2013-02-02 16:56:00,28.8,19.0,30.09,SSW,210,7.0,-999.0,67,-99.99,,,0.00,weatherlink.com 1.10,2013-02-02 21:56:00,
2013-02-02 17:11:00,28.8,20.0,30.09,SSW,210,8.0,-999.0,69,-99.99,,,0.00,weatherlink.com 1.10,2013-02-02 22:11:00,
2013-02-02 17:26:00,29.0,20.0,30.09,SW,218,13.0,-999.0,69,-99.99,,,0.00,weatherlink.com 1.10,2013-02-02 22:26:00,
2013-02-02 17:41:00,29.4,20.0,30.09,SSW,205,16.0,-999.0,68,-99.99,,,0.00,weatherlink.com 1.10,2013-02-02 22:41:00,
2013-02-02 17:56:00,29.6,20.0,30.09,SSW,205,12.0,-999.0,68,-99.99,,,0.00,weatherlink.com 1.10,2013-02-02 22:56:00,
2013-02-02 18:12:00,29.8,20.0,30.08,SW,217,8.0,-999.0,68,-99.99,,,0.00,weatherlink.com 1.10,2013-02-02 23:12:00,
2013-02-02 18:27:00,30.1,21.0,30.08,SSW,196,14.0,-999.0,68,-99.99,,,0.00,weatherlink.com 1.10,2013-02-02 23:27:00,
2013-02-02 18:41:00,30.1,21.0,30.08,SW,220,10.0,-999.0,68,-99.99,,,0.00,weatherlink.com 1.10,2013-02-02 23:41:00,
2013-02-02 18:57:00,30.1,21.0,30.08,SSW,196,10.0,-999.0,68,-99.99,,,0.00,weatherlink.com 1.10,2013-02-02 23:57:00,
2013-02-02 19:11:00,30.1,21.0,30.08,SW,215,12.0,-999.0,68,-99.99,,,0.00,weatherlink.com 1.10,2013-02-03 00:11:00,
2013-02-02 19:26:00,30.4,21.0,30.07,SSW,210,9.0,-999.0,69,-99.99,,,0.00,weatherlink.com 1.10,2013-02-03 00:26:00,
2013-02-02 19:41:00,30.5,21.0,30.07,SSW,205,8.0,-999.0,68,-99.99,,,0.00,weatherlink.com 1.10,2013-02-03 00:41:00,
2013-02-02 19:56:00,30.4,21.0,30.07,SSW,195,10.0,-999.0,69,-99.99,,,0.00,weatherlink.com 1.10,2013-02-03 00:56:00,
2013-02-02 20:11:00,30.2,22.0,30.06,SSW,210,5.0,-999.0,70,-99.99,,,0.00,weatherlink.com 1.10,2013-02-03 01:11:00,
2013-02-02 20:26:00,29.9,21.0,30.06,SSW,205,7.0,-999.0,70,-99.99,,,0.00,weatherlink.com 1.10,2013-02-03 01:26:00,
2013-02-02 20:41:00,30.2,22.0,30.06,SSW,205,5.0,-999.0,70,-99.99,,,0.00,weatherlink.com 1.10,2013-02-03 01:41:00,
2013-02-02 20:56:00,29.6,21.0,30.06,SSW,205,0.0,-999.0,70,-99.99,,,0.00,weatherlink.com 1.10,2013-02-03 01:56:00,
2013-02-02 21:11:00,29.3,21.0,30.06,SSW,205,0.0,-999.0,70,-99.99,,,0.00,weatherlink.com 1.10,2013-02-03 02:11:00,
2013-02-02 21:26:00,29.2,21.0,30.06,SSW,205,0.0,-999.0,70,-99.99,,,0.00,weatherlink.com 1.10,2013-02-03 02:26:00,
2013-02-02 21:42:00,29.2,21.0,30.06,SSW,205,0.0,-999.0,71,-99.99,,,0.00,weatherlink.com 1.10,2013-02-03 02:42:00,
2013-02-02 21:56:00,29.1,21.0,30.06,SSW,205,2.0,-999.0,71,-99.99,,,0.00,weatherlink.com 1.10,2013-02-03 02:56:00,
2013-02-02 22:11:00,29.3,21.0,30.06,SSW,205,1.0,-999.0,70,-99.99,,,0.00,weatherlink.com 1.10,2013-02-03 03:11:00,
2013-02-02 22:26:00,29.4,21.0,30.05,SSW,205,2.0,-999.0,70,-99.99,,,0.00,weatherlink.com 1.10,2013-02-03 03:26:00,
2013-02-02 22:41:00,29.6,21.0,30.05,SSW,205,4.0,-999.0,70,-99.99,,,0.00,weatherlink.com 1.10,2013-02-03 03:41:00,
2013-02-02 22:56:00,29.5,20.0,30.05,SSW,205,2.0,-999.0,69,-99.99,,,0.00,weatherlink.com 1.10,2013-02-03 03:56:00,
2013-02-02 23:11:00,29.3,20.0,30.05,SSW,205,2.0,-999.0,68,-99.99,,,0.00,weatherlink.com 1.10,2013-02-03 04:11:00,
2013-02-02 23:26:00,28.9,18.0,30.06,SSW,205,4.0,-999.0,64,-99.99,,,0.00,weatherlink.com 1.10,2013-02-03 04:26:00,
2013-02-02 23:41:00,28.3,14.0,30.06,SSW,205,0.0,-999.0,56,-99.99,,,0.00,weatherlink.com 1.10,2013-02-03 04:41:00,
2013-02-02 23:56:00,27.9,12.0,30.06,WSW,239,0.0,-999.0,51,-99.99,,,0.00,weatherlink.com 1.10,2013-02-03 04:56:00,